Time;durP1;ratioP1;P1;durP2;ratioP2;P2;SDS_P1;SDS_P2;PMS_P1;PMS_P2;Temp;Humidity;BMP_temperature;BMP_pressure;BME280_temperature;BME280_humidity;BME280_pressure;Samples;Min_cycle;Max_cycle;Signal;HPM_P1;HPM_P2
2023/04/25 00:02:18;;;;;;;;;5.33;5.33;;;;;16.57;73.30;100430.31;4946798;28;45823;-81
2023/04/25 00:04:43;;;;;;;;;8.33;8.00;;;;;16.59;73.03;100433.00;4959670;28;45443;-81
2023/04/25 00:07:09;;;;;;;;;4.00;4.00;;;;;16.53;72.61;100423.22;4943259;28;47138;-81
2023/04/25 00:09:34;;;;;;;;;7.00;7.00;;;;;16.44;72.43;100414.44;4943014;28;45845;-81
2023/04/25 00:12:01;;;;;;;;;5.33;5.33;;;;;16.42;72.93;100425.22;4943219;28;46056;-81
2023/04/25 00:14:27;;;;;;;;;4.00;3.67;;;;;16.38;73.84;100423.44;4946865;28;44864;-81
2023/04/25 00:16:54;;;;;;;;;6.33;5.67;;;;;16.34;73.26;100419.94;4959919;28;47141;-81
2023/04/25 00:19:19;;;;;;;;;4.00;4.00;;;;;16.35;73.83;100418.16;4958598;28;45908;-81
2023/04/25 00:21:45;;;;;;;;;5.00;4.67;;;;;16.33;74.31;100417.28;4942170;28;45538;-80
2023/04/25 00:24:10;;;;;;;;;4.00;4.00;;;;;16.35;74.06;100423.50;4942988;28;45563;-80
2023/04/25 00:26:37;;;;;;;;;7.00;7.00;;;;;16.68;75.42;100415.84;4958264;28;48126;-80
2023/04/25 00:29:02;;;;;;;;;7.00;6.33;;;;;16.39;74.99;100425.25;4943254;28;45363;-81
2023/04/25 00:31:28;;;;;;;;;8.00;5.67;;;;;16.38;74.95;100415.41;4959566;28;45377;-81
2023/04/25 00:33:54;;;;;;;;;7.00;7.00;;;;;16.38;74.67;100418.09;4944120;28;45428;-82
2023/04/25 00:36:20;;;;;;;;;6.00;6.00;;;;;16.31;74.97;100417.28;4944962;28;45452;-81
2023/04/25 00:38:45;;;;;;;;;5.00;5.00;;;;;16.37;74.91;100427.06;4944107;28;45516;-80
2023/04/25 00:41:11;;;;;;;;;6.33;5.33;;;;;16.32;74.29;100408.34;4943761;28;45750;-81
2023/04/25 00:43:37;;;;;;;;;5.33;5.33;;;;;16.36;74.27;100414.53;4943034;28;45432;-81
2023/04/25 00:46:03;;;;;;;;;7.67;6.67;;;;;16.24;73.44;100414.72;4958454;28;47204;-81
2023/04/25 00:48:28;;;;;;;;;5.67;5.67;;;;;16.14;73.07;100414.00;4942726;28;45665;-81
2023/04/25 00:50:57;;;;;;;;;9.00;9.00;;;;;16.42;74.05;100421.63;4942223;28;45543;-81
2023/04/25 00:53:24;;;;;;;;;8.33;7.00;;;;;16.14;74.09;100422.03;4944294;28;45386;-81
2023/04/25 00:55:50;;;;;;;;;8.00;8.00;;;;;16.07;74.56;100418.53;4936963;28;48032;-81
2023/04/25 00:58:17;;;;;;;;;9.00;7.67;;;;;16.15;73.90;100422.00;4924519;28;45550;-81
2023/04/25 01:00:45;;;;;;;;;9.00;7.33;;;;;16.10;74.81;100415.81;4936790;28;45390;-81
2023/04/25 01:03:11;;;;;;;;;9.67;8.67;;;;;16.00;73.61;100422.22;4941458;28;45468;-81
2023/04/25 01:05:36;;;;;;;;;6.33;6.33;;;;;15.90;74.66;100421.44;4943810;28;45734;-81
2023/04/25 01:08:02;;;;;;;;;9.00;9.00;;;;;15.93;74.89;100420.50;4960298;28;45583;-81
2023/04/25 01:10:27;;;;;;;;;8.00;7.33;;;;;15.90;75.16;100413.41;4959837;28;45325;-81
2023/04/25 01:12:53;;;;;;;;;9.00;9.00;;;;;15.86;75.38;100418.84;4958191;28;45461;-81
2023/04/25 01:15:18;;;;;;;;;9.00;9.00;;;;;15.87;73.82;100409.88;4942934;28;45419;-80
2023/04/25 01:17:44;;;;;;;;;9.00;7.67;;;;;15.88;75.46;100411.66;4943459;28;45408;-81
2023/04/25 01:20:11;;;;;;;;;10.33;7.67;;;;;16.13;74.40;100404.16;4941469;28;45508;-81
2023/04/25 01:22:36;;;;;;;;;9.00;7.00;;;;;15.79;74.41;100410.88;4944177;28;45332;-81
2023/04/25 01:25:02;;;;;;;;;7.33;7.33;;;;;15.76;75.36;100412.69;4927370;28;47876;-81
2023/04/25 01:27:29;;;;;;;;;8.00;6.00;;;;;15.77;74.84;100396.59;4943901;28;45604;-81
2023/04/25 01:29:55;;;;;;;;;7.00;7.00;;;;;15.72;75.39;100401.13;4943112;28;45457;-81
2023/04/25 01:32:26;;;;;;;;;11.33;9.33;;;;;16.00;75.82;100411.50;4943861;28;45466;-81
2023/04/25 01:34:52;;;;;;;;;11.33;10.33;;;;;15.79;75.24;100408.19;4941745;28;47307;-81
2023/04/25 01:37:17;;;;;;;;;8.00;8.00;;;;;15.82;74.91;100406.38;4942774;28;45483;-81
2023/04/25 01:39:43;;;;;;;;;10.33;9.67;;;;;15.84;75.21;100400.06;4941491;28;45420;-81
2023/04/25 01:42:10;;;;;;;;;10.67;9.33;;;;;16.18;75.77;100416.59;4942889;28;45480;-81
2023/04/25 01:44:35;;;;;;;;;8.67;8.67;;;;;15.84;74.73;100410.81;4957132;28;46169;-81
2023/04/25 01:47:01;;;;;;;;;11.67;9.33;;;;;15.84;75.01;100415.28;4958310;28;45510;-81
2023/04/25 01:49:26;;;;;;;;;6.33;6.33;;;;;15.85;75.16;100419.72;4957157;28;45440;-81
2023/04/25 01:51:58;;;;;;;;;9.33;9.33;;;;;16.41;74.92;100412.69;4943405;28;45459;-81
2023/04/25 01:54:23;;;;;;;;;11.33;9.33;;;;;15.84;75.46;100412.59;4942671;28;45992;-81
2023/04/25 01:56:52;;;;;;;;;14.00;10.00;;;;;16.41;75.37;100415.38;4949639;28;45531;-81
2023/04/25 01:59:25;;;;;;;;;12.00;10.00;;;;;16.22;75.50;100422.81;4963838;28;45543;-81
2023/04/25 02:01:51;;;;;;;;;10.00;8.67;;;;;15.86;73.36;100419.72;4983354;28;45484;-82
2023/04/25 02:04:16;;;;;;;;;10.33;10.00;;;;;15.83;72.71;100419.72;4982513;28;45475;-81
2023/04/25 02:06:41;;;;;;;;;6.33;5.67;;;;;15.86;74.85;100410.78;4984491;28;45401;-81
2023/04/25 02:09:07;;;;;;;;;9.00;7.00;;;;;15.92;75.25;100413.38;4981965;28;45438;-81
2023/04/25 02:11:32;;;;;;;;;9.00;9.00;;;;;15.97;75.12;100424.94;4964171;28;45613;-81
2023/04/25 02:13:58;;;;;;;;;13.67;9.33;;;;;16.02;74.15;100420.41;4980581;28;46136;-80
2023/04/25 02:16:23;;;;;;;;;10.33;9.00;;;;;16.06;73.22;100422.13;4979891;28;46149;-81
2023/04/25 02:18:48;;;;;;;;;12.00;9.00;;;;;16.09;73.89;100423.88;4981894;28;45429;-81
2023/04/25 02:21:14;;;;;;;;;8.67;8.00;;;;;16.04;74.13;100418.59;4982589;28;45285;-81
2023/04/25 02:23:39;;;;;;;;;7.67;7.67;;;;;16.16;73.98;100430.94;4981815;28;45588;-81
2023/04/25 02:26:06;;;;;;;;;11.33;9.00;;;;;16.81;73.44;100428.19;4981916;28;45440;-82
2023/04/25 02:28:31;;;;;;;;;7.67;7.67;;;;;16.25;72.86;100427.25;4980493;28;45332;-81
2023/04/25 02:30:57;;;;;;;;;10.00;8.33;;;;;16.20;72.88;100419.28;4981628;28;45786;-81
2023/04/25 02:33:22;;;;;;;;;10.33;10.33;;;;;16.12;72.87;100422.06;4982213;28;45811;-80
2023/04/25 02:35:48;;;;;;;;;12.33;10.33;;;;;16.42;73.71;100418.94;4979860;28;45742;-80
2023/04/25 02:38:14;;;;;;;;;3.00;3.00;;;;;16.07;73.92;100429.25;4978752;28;45492;-80
2023/04/25 02:40:40;;;;;;;;;9.50;8.50;;;;;16.03;73.70;100424.84;4979241;28;45860;-80
2023/04/25 02:43:05;;;;;;;;;9.33;9.33;;;;;15.99;73.58;100426.69;4980358;28;45471;-80
2023/04/25 02:45:31;;;;;;;;;9.33;9.33;;;;;16.08;73.73;100430.13;4981094;28;45453;-80
2023/04/25 02:47:56;;;;;;;;;10.00;10.00;;;;;16.10;73.23;100429.22;4977488;28;45417;-79
2023/04/25 02:50:21;;;;;;;;;14.00;10.00;;;;;16.04;72.69;100432.00;4977728;28;45424;-80
2023/04/25 02:52:47;;;;;;;;;10.00;9.00;;;;;15.98;73.72;100426.72;4979084;28;45832;-81
2023/04/25 02:55:13;;;;;;;;;11.33;9.67;;;;;16.15;73.17;100432.72;4980896;28;45443;-80
2023/04/25 02:57:39;;;;;;;;;8.67;8.67;;;;;15.89;73.70;100426.81;4980743;28;45684;-81
2023/04/25 03:00:05;;;;;;;;;10.00;9.00;;;;;16.06;73.67;100427.50;4974197;28;45428;-81
2023/04/25 03:02:30;;;;;;;;;8.33;8.33;;;;;16.02;73.42;100436.50;4959709;28;45379;-81
2023/04/25 03:04:56;;;;;;;;;12.00;11.00;;;;;15.95;73.34;100421.38;4959806;28;45439;-81
2023/04/25 03:10:44;;;;;;;;;9.00;7.67;;;;;15.91;73.06;100436.63;4961480;28;45448;-81
2023/04/25 03:13:10;;;;;;;;;13.33;9.33;;;;;15.74;73.53;100423.44;4975085;28;47012;-81
2023/04/25 03:15:36;;;;;;;;;13.33;11.00;;;;;15.82;73.23;100425.16;4958434;28;45730;-81
2023/04/25 03:18:01;;;;;;;;;10.00;10.00;;;;;15.73;72.99;100432.38;4959119;28;45421;-81
2023/04/25 03:20:28;;;;;;;;;11.67;11.33;;;;;16.07;74.17;100439.13;4977796;28;45761;-81
2023/04/25 03:22:54;;;;;;;;;10.33;10.33;;;;;15.79;73.97;100440.38;4977910;28;47068;-81
2023/04/25 03:25:20;;;;;;;;;10.67;10.67;;;;;15.79;73.69;100426.97;4978340;28;45864;-81
2023/04/25 03:27:45;;;;;;;;;11.00;10.00;;;;;15.88;73.56;100433.13;4964092;28;45485;-81
2023/04/25 03:30:10;;;;;;;;;15.33;9.33;;;;;15.80;73.46;100427.84;4965584;28;45435;-81
2023/04/25 03:32:37;;;;;;;;;13.33;12.33;;;;;16.11;73.38;100427.44;4980380;28;47087;-81
2023/04/25 03:35:03;;;;;;;;;12.00;9.67;;;;;15.74;73.25;100423.44;4980111;28;45435;-81
2023/04/25 03:37:28;;;;;;;;;8.67;8.67;;;;;15.75;73.44;100427.00;4964181;28;45467;-80
2023/04/25 03:39:54;;;;;;;;;11.00;9.00;;;;;15.78;73.37;100435.00;4964295;28;45657;-81
2023/04/25 03:42:20;;;;;;;;;7.67;6.67;;;;;15.74;73.43;100428.78;4964851;28;45435;-80
2023/04/25 03:44:46;;;;;;;;;9.33;8.67;;;;;16.08;73.62;100447.16;4964519;28;45525;-80
2023/04/25 03:47:11;;;;;;;;;11.67;11.67;;;;;15.76;73.43;100435.03;4963162;28;45429;-79
2023/04/25 03:49:37;;;;;;;;;10.00;10.00;;;;;15.83;72.23;100443.00;4960475;28;45749;-80
2023/04/25 03:52:02;;;;;;;;;11.33;8.67;;;;;15.83;72.64;100435.81;4939018;28;47270;-80
2023/04/25 03:54:28;;;;;;;;;13.67;11.33;;;;;15.76;72.98;100434.16;4963437;28;45539;-81
2023/04/25 03:56:53;;;;;;;;;11.00;9.67;;;;;15.88;73.13;100447.41;4946698;28;46405;-81
2023/04/25 03:59:19;;;;;;;;;13.33;10.33;;;;;15.87;73.19;100447.41;4962360;28;45456;-81
2023/04/25 04:01:44;;;;;;;;;13.00;11.67;;;;;15.76;72.21;100428.78;4945809;28;47235;-80
2023/04/25 04:04:09;;;;;;;;;9.67;9.00;;;;;15.77;72.43;100434.13;4963741;28;45432;-81
2023/04/25 04:06:36;;;;;;;;;11.00;11.00;;;;;15.80;72.19;100452.84;4947682;28;45478;-81
2023/04/25 04:09:03;;;;;;;;;10.67;9.00;;;;;15.71;71.99;100442.19;4965526;28;45386;-80
2023/04/25 04:11:28;;;;;;;;;12.00;9.00;;;;;15.61;71.76;100451.25;4964107;28;46013;-81
2023/04/25 04:13:53;;;;;;;;;10.67;10.00;;;;;15.59;71.59;100447.69;4964017;28;45373;-80
2023/04/25 04:16:19;;;;;;;;;13.00;10.33;;;;;15.66;73.06;100454.78;4946737;28;45750;-80
2023/04/25 04:18:45;;;;;;;;;11.00;10.00;;;;;15.85;73.75;100449.22;4964889;28;45458;-81
2023/04/25 04:21:12;;;;;;;;;11.00;11.00;;;;;16.02;74.40;100452.59;4946093;28;47102;-81
2023/04/25 04:23:37;;;;;;;;;12.67;11.00;;;;;15.73;73.19;100443.09;4963160;28;45511;-81
2023/04/25 04:26:03;;;;;;;;;11.33;11.33;;;;;15.84;73.38;100464.44;4963000;28;45449;-81
2023/04/25 04:28:28;;;;;;;;;12.67;12.67;;;;;15.70;72.60;100448.47;4962972;28;45513;-81
2023/04/25 04:30:55;;;;;;;;;14.33;12.67;;;;;15.76;73.15;100460.97;4945239;28;47115;-81
2023/04/25 04:33:23;;;;;;;;;16.67;15.00;;;;;16.11;74.13;100459.63;4962244;28;45574;-81
2023/04/25 04:35:52;;;;;;;;;12.33;12.33;;;;;16.11;73.74;100473.03;4963281;28;45433;-81
2023/04/25 04:38:18;;;;;;;;;12.00;10.33;;;;;15.84;71.93;100469.78;4962715;28;45384;-80
2023/04/25 04:40:44;;;;;;;;;13.67;11.33;;;;;15.88;73.81;100471.53;4944763;28;46982;-80
2023/04/25 04:43:10;;;;;;;;;13.67;12.33;;;;;15.85;72.17;100476.91;4961471;28;45505;-81
2023/04/25 04:45:36;;;;;;;;;14.00;14.00;;;;;15.76;72.80;100477.91;4960243;28;45468;-81
2023/04/25 04:48:01;;;;;;;;;12.33;12.33;;;;;15.86;74.14;100484.06;4960270;28;45035;-81
2023/04/25 04:50:27;;;;;;;;;14.00;12.00;;;;;15.92;73.25;100483.13;4962549;28;45855;-81
2023/04/25 04:52:52;;;;;;;;;12.67;12.67;;;;;15.89;72.72;100472.41;4961540;28;45437;-80
2023/04/25 04:55:17;;;;;;;;;15.00;14.33;;;;;15.82;73.39;100468.94;4963596;28;45345;-80
2023/04/25 04:57:43;;;;;;;;;18.00;14.00;;;;;15.80;73.37;100479.66;4961360;28;45667;-80
2023/04/25 05:00:10;;;;;;;;;13.33;13.33;;;;;15.90;73.49;100493.84;4962543;28;45987;-81
2023/04/25 05:02:37;;;;;;;;;12.33;12.33;;;;;15.92;73.19;100493.84;4944774;28;45685;-81
2023/04/25 05:05:03;;;;;;;;;14.00;14.00;;;;;15.85;73.19;100505.53;4955524;28;45567;-80
2023/04/25 05:07:29;;;;;;;;;5.33;5.33;;;;;15.79;72.66;100510.09;4962522;28;45515;-81
2023/04/25 05:09:54;;;;;;;;;16.00;14.67;;;;;15.92;73.59;100517.97;4962386;28;46664;-80
2023/04/25 05:12:19;;;;;;;;;15.00;15.00;;;;;15.99;71.38;100512.50;4944531;28;45578;-80
2023/04/25 05:14:45;;;;;;;;;14.67;14.00;;;;;16.03;73.43;100516.03;4961979;28;45469;-81
2023/04/25 05:17:10;;;;;;;;;9.00;9.00;;;;;16.09;72.73;100513.28;4964093;28;45360;-80
2023/04/25 05:19:35;;;;;;;;;14.33;14.33;;;;;16.05;71.53;100526.75;4962989;28;46135;-80
2023/04/25 05:22:02;;;;;;;;;16.33;15.33;;;;;16.16;73.33;100532.91;4964039;28;45352;-80
2023/04/25 05:24:27;;;;;;;;;14.33;14.33;;;;;15.98;72.31;100544.75;4945522;28;45427;-81
2023/04/25 05:26:53;;;;;;;;;14.00;13.33;;;;;15.88;72.13;100526.97;4946149;28;45379;-81
2023/04/25 05:29:18;;;;;;;;;11.67;11.67;;;;;16.00;71.26;100543.81;4945954;28;48445;-81
2023/04/25 05:31:44;;;;;;;;;14.00;14.00;;;;;16.07;72.76;100552.66;4961244;28;44878;-81
2023/04/25 05:34:09;;;;;;;;;14.67;11.67;;;;;16.06;72.74;100556.25;4945375;28;45681;-81
2023/04/25 05:36:35;;;;;;;;;18.00;16.67;;;;;16.07;72.53;100552.66;4962491;28;45523;-80
2023/04/25 05:39:00;;;;;;;;;17.67;15.00;;;;;16.08;71.24;100564.28;4976348;28;46868;-81
2023/04/25 05:41:25;;;;;;;;;14.33;13.00;;;;;15.99;70.29;100566.16;4961544;28;45525;-82
2023/04/25 05:43:51;;;;;;;;;14.33;12.67;;;;;15.79;70.88;100582.47;4963536;28;45488;-83
2023/04/25 05:49:38;;;;;;;;;17.67;14.00;;;;;15.65;72.48;100587.03;4960981;28;45759;-83
2023/04/25 05:52:04;;;;;;;;;13.67;11.00;;;;;15.64;72.73;100590.63;4965685;28;45384;-84
2023/04/25 05:54:29;;;;;;;;;16.67;15.00;;;;;15.61;72.70;100596.00;4964468;28;45418;-82
2023/04/25 05:56:56;;;;;;;;;14.00;12.00;;;;;15.85;71.50;100602.97;4965173;28;45393;-83
2023/04/25 05:59:23;;;;;;;;;21.00;15.67;;;;;15.75;73.45;100603.94;4948120;28;48736;-82
2023/04/25 06:01:48;;;;;;;;;19.00;18.67;;;;;15.53;72.57;100613.94;4960225;28;45833;-83
2023/04/25 06:04:13;;;;;;;;;16.00;13.67;;;;;15.53;72.57;100605.91;4962200;28;45857;-82
2023/04/25 06:06:39;;;;;;;;;11.00;9.33;;;;;15.44;71.99;100609.56;4962821;28;45493;-84
2023/04/25 06:09:04;;;;;;;;;14.33;13.33;;;;;15.44;71.67;100617.59;4962059;28;45187;-80
2023/04/25 06:11:30;;;;;;;;;17.33;17.00;;;;;15.49;72.73;100612.19;4963045;28;45801;-81
2023/04/25 06:13:55;;;;;;;;;19.00;14.67;;;;;15.50;71.05;100616.66;4967479;28;45456;-80
2023/04/25 06:16:20;;;;;;;;;18.00;16.00;;;;;15.54;73.01;100613.06;4968099;28;45369;-80
2023/04/25 06:18:46;;;;;;;;;17.00;15.00;;;;;15.51;73.61;100621.09;4964759;28;45483;-82
2023/04/25 06:21:11;;;;;;;;;16.00;14.00;;;;;15.59;74.26;100611.22;4963314;28;45539;-82
2023/04/25 06:23:37;;;;;;;;;10.00;8.67;;;;;16.02;74.41;100616.22;4946729;28;45441;-82
2023/04/25 06:26:03;;;;;;;;;13.33;13.33;;;;;15.71;72.40;100621.81;4949390;28;45068;-81
2023/04/25 06:28:29;;;;;;;;;15.00;11.67;;;;;15.74;71.64;100619.16;4944776;28;46485;-81
2023/04/25 06:30:54;;;;;;;;;17.33;15.00;;;;;15.89;72.78;100618.13;4945559;28;45404;-81
2023/04/25 06:33:21;;;;;;;;;15.33;14.67;;;;;16.10;73.65;100626.88;4932596;28;45420;-82
2023/04/25 06:36:25;;;;;;;;;13.00;13.00;;;;;16.95;71.93;100633.00;4949738;28;45470;-82
2023/04/25 06:38:52;;;;;;;;;14.67;13.33;;;;;16.39;71.94;100629.22;4965635;28;48274;-81
2023/04/25 06:41:17;;;;;;;;;18.00;13.33;;;;;16.39;74.11;100629.22;4962388;28;45347;-82
2023/04/25 06:43:42;;;;;;;;;13.00;10.67;;;;;16.47;71.42;100627.34;4946671;28;45633;-81
2023/04/25 06:46:08;;;;;;;;;12.67;12.33;;;;;16.33;70.13;100629.28;4948105;28;45660;-81
2023/04/25 06:49:23;;;;;;;;;9.00;8.00;;;;;17.02;68.97;100641.88;4957444;28;48116;-81
2023/04/25 06:51:49;;;;;;;;;13.67;11.00;;;;;16.27;70.21;100642.78;4966368;28;45714;-81
2023/04/25 06:54:14;;;;;;;;;15.00;13.33;;;;;16.34;71.58;100655.22;4963103;28;45486;-82
2023/04/25 06:56:40;;;;;;;;;14.00;12.67;;;;;16.41;68.97;100654.25;4973162;28;45804;-81
2023/04/25 06:59:05;;;;;;;;;14.00;13.00;;;;;16.33;70.94;100653.44;4945071;28;46830;-80
2023/04/25 07:01:37;;;;;;;;;14.00;14.00;;;;;16.88;67.82;100662.66;4977437;28;45615;-81
2023/04/25 07:04:03;;;;;;;;;17.33;15.33;;;;;16.36;70.04;100669.50;4976138;28;45270;-82
2023/04/25 07:06:28;;;;;;;;;21.00;17.00;;;;;16.36;70.35;100662.38;4951704;28;45379;-82
2023/04/25 07:08:55;;;;;;;;;21.33;18.67;;;;;16.46;69.47;100672.97;4966082;28;48268;-81
2023/04/25 07:14:42;;;;;;;;;20.67;19.00;;;;;16.11;66.98;100677.81;4968834;28;45872;-80
2023/04/25 07:17:07;;;;;;;;;23.67;22.00;;;;;16.02;67.54;100680.59;4950971;28;45476;-81
2023/04/25 07:19:33;;;;;;;;;18.33;18.33;;;;;15.79;65.91;100679.00;4951279;28;46965;-80
2023/04/25 07:21:58;;;;;;;;;24.67;21.33;;;;;15.75;69.01;100685.31;4950624;28;45420;-80
2023/04/25 07:24:24;;;;;;;;;14.33;14.33;;;;;15.73;70.02;100695.13;4966123;28;45493;-80
2023/04/25 07:26:50;;;;;;;;;19.00;19.00;;;;;16.03;71.35;100695.78;4969981;28;45387;-80
2023/04/25 07:29:16;;;;;;;;;21.67;20.33;;;;;15.76;69.44;100688.88;4969935;28;45550;-80
2023/04/25 07:31:42;;;;;;;;;23.00;20.33;;;;;15.50;70.69;100703.31;4964447;28;46015;-81
2023/04/25 07:34:07;;;;;;;;;23.00;19.00;;;;;15.45;70.65;100704.25;4972099;28;45528;-80
2023/04/25 07:36:33;;;;;;;;;29.33;24.33;;;;;15.38;70.16;100706.97;4956828;28;45388;-79
2023/04/25 07:39:01;;;;;;;;;22.33;20.67;;;;;15.78;68.45;100696.00;4971037;28;48959;-81
2023/04/25 07:41:29;;;;;;;;;30.33;24.00;;;;;15.69;66.29;100705.84;4951975;28;45271;-81
2023/04/25 07:43:55;;;;;;;;;20.67;20.33;;;;;15.38;68.38;100715.00;4964124;28;45436;-81
2023/04/25 07:46:27;;;;;;;;;14.33;13.00;;;;;15.37;64.87;100713.22;4990441;28;45415;-81
2023/04/25 07:48:52;;;;;;;;;19.33;13.67;;;;;15.43;65.58;100704.28;4973239;28;46866;-80
2023/04/25 07:51:22;;;;;;;;;24.00;23.00;;;;;15.96;67.47;100718.22;4971797;28;45310;-81
2023/04/25 07:53:48;;;;;;;;;19.67;19.67;;;;;15.90;65.92;100718.25;4964295;28;45955;-80
2023/04/25 07:56:13;;;;;;;;;21.33;18.33;;;;;16.22;64.58;100727.78;4983803;28;45442;-82
2023/04/25 07:58:38;;;;;;;;;18.00;16.67;;;;;16.50;67.28;100737.38;4973057;28;45329;-82
2023/04/25 08:01:04;;;;;;;;;13.67;12.67;;;;;16.49;61.27;100732.91;4971211;28;45490;-82
2023/04/25 08:06:55;;;;;;;;;12.33;12.33;;;;;16.92;63.22;100753.94;4993372;28;45784;-81
2023/04/25 08:09:22;;;;;;;;;20.00;16.00;;;;;16.62;63.65;100767.66;4974394;28;47008;-81
2023/04/25 08:11:48;;;;;;;;;21.00;18.33;;;;;16.31;65.54;100770.66;4999454;28;44831;-82
2023/04/25 08:14:14;;;;;;;;;24.00;20.00;;;;;16.26;61.61;100772.47;4976725;28;45460;-80
2023/04/25 08:16:39;;;;;;;;;20.67;19.33;;;;;16.20;63.78;100778.81;4971483;28;45464;-80
2023/04/25 08:19:05;;;;;;;;;17.33;15.00;;;;;16.25;64.23;100781.44;4981458;28;45532;-79
2023/04/25 08:21:32;;;;;;;;;16.00;15.00;;;;;16.31;63.48;100779.59;4991063;28;45428;-80
2023/04/25 08:23:58;;;;;;;;;19.67;18.67;;;;;16.23;62.00;100788.63;4989542;28;45618;-82
2023/04/25 08:26:24;;;;;;;;;13.33;12.67;;;;;16.33;62.95;100782.28;4990510;28;45460;-81
2023/04/25 08:28:51;;;;;;;;;16.67;14.33;;;;;16.19;61.37;100791.31;4974087;28;45703;-82
2023/04/25 08:38:01;;;;;;;;;20.33;17.00;;;;;16.38;61.23;100785.78;4990410;28;45597;-81
2023/04/25 08:40:29;;;;;;;;;18.33;15.33;;;;;16.71;63.75;100787.28;4968840;28;46893;-81
2023/04/25 08:42:57;;;;;;;;;17.67;13.00;;;;;16.52;59.80;100793.72;4975219;28;45958;-82
2023/04/25 08:45:31;;;;;;;;;18.67;17.67;;;;;16.54;64.87;100800.88;4986362;28;45341;-82
2023/04/25 08:47:57;;;;;;;;;14.00;11.33;;;;;16.06;60.14;100807.53;4992238;28;44864;-81
2023/04/25 08:50:27;;;;;;;;;16.67;16.00;;;;;16.55;61.69;100805.31;4985924;28;47450;-81
2023/04/25 08:52:58;;;;;;;;;16.33;13.33;;;;;16.23;59.94;100812.78;4975119;28;45454;-81
2023/04/25 08:55:25;;;;;;;;;12.67;12.67;;;;;16.13;59.65;100806.59;4959698;28;45490;-83
2023/04/25 08:57:51;;;;;;;;;15.00;14.00;;;;;16.52;63.07;100823.25;4989911;28;45427;-82
2023/04/25 09:00:18;;;;;;;;;18.67;16.00;;;;;16.86;60.44;100821.16;4954554;28;47881;-81
2023/04/25 09:02:45;;;;;;;;;20.33;16.67;;;;;16.83;61.46;100815.84;4993284;28;44759;-83
2023/04/25 09:05:14;;;;;;;;;13.67;13.33;;;;;17.34;62.33;100826.88;4992592;28;45184;-82
2023/04/25 09:07:43;;;;;;;;;9.00;8.33;;;;;17.12;59.13;100830.75;4957824;28;45477;-80
2023/04/25 09:10:31;;;;;;;;;16.00;14.00;;;;;17.70;59.71;100838.06;4993784;28;46128;-82
2023/04/25 09:13:04;;;;;;;;;17.67;13.00;;;;;17.89;58.70;100838.72;4995992;28;45499;-81
2023/04/25 09:15:46;;;;;;;;;12.33;10.33;;;;;17.90;57.70;100839.63;4973162;28;45369;-81
2023/04/25 09:18:11;;;;;;;;;12.67;10.00;;;;;17.49;59.71;100849.09;4972323;28;45721;-80
2023/04/25 09:20:44;;;;;;;;;14.67;14.67;;;;;18.16;56.00;100848.19;4981781;28;45491;-81
2023/04/25 09:23:19;;;;;;;;;13.33;13.00;;;;;18.00;52.85;100830.50;4957677;28;45495;-81
2023/04/25 09:25:47;;;;;;;;;17.33;14.00;;;;;18.03;57.09;100834.94;4991842;28;44815;-81
2023/04/25 09:28:22;;;;;;;;;12.33;10.00;;;;;18.23;57.95;100846.28;4975461;28;45475;-82
2023/04/25 09:30:53;;;;;;;;;11.33;9.00;;;;;17.74;53.82;100864.00;4992200;28;45351;-81
2023/04/25 09:33:18;;;;;;;;;13.67;13.67;;;;;17.55;57.17;100863.38;4993299;28;45209;-81
2023/04/25 09:36:24;;;;;;;;;10.00;9.33;;;;;18.14;51.94;100866.19;4978908;28;44863;-81
2023/04/25 09:38:50;;;;;;;;;12.67;9.33;;;;;17.49;58.16;100871.53;4975531;28;45559;-82
2023/04/25 09:41:23;;;;;;;;;12.67;9.67;;;;;17.90;58.50;100869.22;4990752;28;45567;-83
2023/04/25 09:43:52;;;;;;;;;10.67;9.33;;;;;17.54;56.62;100864.28;4987792;28;45487;-82
2023/04/25 09:46:20;;;;;;;;;11.33;11.33;;;;;17.72;58.99;100876.59;4953388;28;45453;-81
2023/04/25 09:52:18;;;;;;;;;15.33;12.00;;;;;18.11;52.37;100873.41;4985162;28;45550;-79
2023/04/25 09:54:45;;;;;;;;;12.00;10.00;;;;;17.75;52.69;100876.56;4950420;28;45391;-79
2023/04/25 09:57:19;;;;;;;;;13.67;10.00;;;;;18.18;56.69;100875.97;4975595;28;45494;-81
2023/04/25 09:59:50;;;;;;;;;9.67;8.67;;;;;18.29;57.96;100880.31;4979007;28;45531;-80
2023/04/25 10:02:22;;;;;;;;;14.00;13.33;;;;;18.22;54.56;100894.75;4961145;28;47454;-80
2023/04/25 10:04:54;;;;;;;;;12.00;12.00;;;;;18.11;53.08;100893.13;4975731;28;45869;-80
2023/04/25 10:07:28;;;;;;;;;11.33;9.00;;;;;17.96;53.17;100896.06;4963523;28;45435;-79
2023/04/25 10:10:04;;;;;;;;;13.00;9.67;;;;;18.33;50.60;100891.00;4964307;28;45371;-81
2023/04/25 10:12:33;;;;;;;;;10.67;10.00;;;;;17.83;53.00;100886.31;4953861;28;45424;-81
2023/04/25 10:18:21;;;;;;;;;12.67;10.67;;;;;17.92;56.61;100900.56;4964525;28;45392;-80
2023/04/25 10:20:47;;;;;;;;;11.33;10.00;;;;;17.96;58.49;100901.44;4962528;28;45750;-81
2023/04/25 10:23:16;;;;;;;;;10.33;8.67;;;;;18.35;57.95;100899.06;4967869;28;46876;-81
2023/04/25 10:25:43;;;;;;;;;10.33;10.33;;;;;18.12;58.52;100900.31;4964045;28;45444;-81
2023/04/25 10:28:11;;;;;;;;;10.00;9.00;;;;;18.55;56.17;100896.06;4953634;28;44905;-81
2023/04/25 10:30:36;;;;;;;;;11.33;9.67;;;;;17.99;56.81;100899.56;4946773;28;45349;-80
2023/04/25 10:33:17;;;;;;;;;15.33;13.00;;;;;18.49;57.72;100897.03;4960333;28;46996;-85
2023/04/25 10:35:44;;;;;;;;;9.33;8.33;;;;;18.54;54.71;100900.56;4969061;28;45422;-83
2023/04/25 10:38:13;;;;;;;;;14.00;12.00;;;;;18.42;57.61;100906.16;4973935;28;45461;-83
2023/04/25 10:40:40;;;;;;;;;14.33;12.67;;;;;18.89;59.06;100903.59;4974769;28;44835;-84
2023/04/25 10:43:37;;;;;;;;;10.67;10.67;;;;;19.34;57.12;100904.53;4954854;28;47623;-82
2023/04/25 10:46:22;;;;;;;;;;;;;;;;;;;;;
2023/04/25 10:48:56;;;;;;;;;8.33;8.33;;;;;19.59;52.81;100904.03;4960843;28;68282;-83
2023/04/25 10:51:33;;;;;;;;;8.00;8.00;;;;;19.77;53.86;100909.09;4949076;28;45516;-84
2023/04/25 10:54:07;;;;;;;;;10.00;10.00;;;;;19.28;53.91;100915.44;4965241;28;47210;-83
2023/04/25 10:56:36;;;;;;;;;10.33;8.33;;;;;19.31;48.81;100910.00;4965514;28;44944;-84
2023/04/25 10:59:44;;;;;;;;;9.00;9.00;;;;;19.74;54.63;100890.28;4955793;28;45451;-83
2023/04/25 11:02:32;;;;;;;;;9.67;6.67;;;;;19.50;54.92;100875.44;4951028;28;45464;-83
2023/04/25 11:05:00;;;;;;;;;6.33;5.00;;;;;19.48;54.21;100906.06;4947090;28;45561;-83
2023/04/25 11:07:39;;;;;;;;;9.00;8.00;;;;;19.99;54.49;100914.03;4942073;28;45120;-80
2023/04/25 11:10:08;;;;;;;;;7.33;5.67;;;;;19.42;52.69;100922.38;4951036;28;45440;-81
2023/04/25 11:12:33;;;;;;;;;5.33;5.00;;;;;19.25;53.42;100896.63;4945889;28;45396;-82
2023/04/25 11:15:28;;;;;;;;;4.00;4.00;;;;;19.80;51.09;100918.06;4951967;28;46962;-83
2023/04/25 11:17:55;;;;;;;;;6.00;6.00;;;;;19.39;53.90;100913.44;4912658;29;45405;-83
2023/04/25 11:21:13;;;;;;;;;8.00;7.33;;;;;19.75;50.87;100924.44;4906970;29;44788;-82
2023/04/25 11:23:59;;;;;;;;;9.00;5.00;;;;;19.65;47.08;100919.22;4845570;29;45505;-83
2023/04/25 11:26:48;;;;;;;;;9.67;8.00;;;;;19.42;47.93;100911.59;4828984;29;46142;-82
2023/04/25 11:29:14;;;;;;;;;7.67;7.67;;;;;18.85;52.65;100918.03;4839508;29;45407;-82
2023/04/25 11:31:45;;;;;;;;;13.00;10.67;;;;;19.04;51.56;100911.41;4852738;29;45466;-81
2023/04/25 11:37:47;;;;;;;;;8.33;7.00;;;;;18.96;53.55;100916.91;4851578;29;47849;-82
2023/04/25 11:40:16;;;;;;;;;6.00;6.00;;;;;18.65;54.97;100929.13;4839191;29;45355;-82
2023/04/25 11:42:46;;;;;;;;;10.67;8.00;;;;;19.23;54.72;100927.22;4839455;29;45458;-82
2023/04/25 11:45:13;;;;;;;;;10.00;9.00;;;;;18.85;52.36;100921.63;4836220;29;45401;-82
2023/04/25 11:47:40;;;;;;;;;7.33;7.33;;;;;19.16;55.11;100910.28;4842280;29;45551;-82
2023/04/25 11:50:19;;;;;;;;;8.00;8.00;;;;;19.20;52.98;100898.53;4855397;29;45624;-82
2023/04/25 11:52:57;;;;;;;;;6.00;6.00;;;;;19.25;54.60;100918.22;4858909;29;45092;-82